AUR30J EGJB-EGJJ

Flight info

Callsign AUR30J
Flight time 0h 9m
Altitude 3000
Route JW
Aircraft A320/M-SDFGHIJ1RWXYZ/LB1

Departure

Time 2026-04-23 05:48
Airport Guernsey Airport (EGJB)

Arrival

Time 2026-04-23 05:57
Airport Jersey Airport (EGJJ)
Time Latitude Longitude Altitude Speed Heading
2026-04-23 05:35 49.43255 -2.59620 324 ft 0 kts 178°
2026-04-23 05:41 49.43269 -2.59621 324 ft 4 kts 178°
2026-04-23 05:42 49.43296 -2.59622 326 ft 4 kts 178°
2026-04-23 05:42 49.43323 -2.59624 325 ft 4 kts 178°
2026-04-23 05:42 49.43350 -2.59625 326 ft 4 kts 178°
2026-04-23 05:42 49.43361 -2.59625 329 ft 0 kts 178°
2026-04-23 05:44 49.43352 -2.59660 325 ft 9 kts 269°
2026-04-23 05:45 49.43345 -2.59821 325 ft 19 kts 266°
2026-04-23 05:45 49.43338 -2.60056 310 ft 19 kts 270°
2026-04-23 05:45 49.43332 -2.60317 295 ft 28 kts 266°
2026-04-23 05:45 49.43327 -2.60606 294 ft 27 kts 275°
2026-04-23 05:46 49.43359 -2.60886 307 ft 26 kts 280°
2026-04-23 05:46 49.43363 -2.61147 312 ft 23 kts 267°
2026-04-23 05:46 49.43360 -2.61222 313 ft 0 kts 272°
2026-04-23 05:47 49.43362 -2.61244 313 ft 6 kts 284°
2026-04-23 05:47 49.43426 -2.61349 316 ft 15 kts 342°
2026-04-23 05:47 49.43471 -2.61221 315 ft 19 kts 86°
2026-04-23 05:48 49.43486 -2.60560 308 ft 113 kts 87°
2026-04-23 05:48 49.43532 -2.59027 705 ft 160 kts 87°
2026-04-23 05:48 49.43590 -2.57271 1823 ft 171 kts 90°
2026-04-23 05:48 49.43439 -2.55365 2574 ft 190 kts 109°
2026-04-23 05:49 49.42735 -2.53511 2959 ft 216 kts 131°
2026-04-23 05:49 49.41461 -2.52228 3010 ft 225 kts 158°
2026-04-23 05:49 49.39918 -2.51697 3012 ft 228 kts 165°
2026-04-23 05:49 49.38368 -2.51208 3011 ft 227 kts 163°
2026-04-23 05:50 49.36790 -2.50688 3016 ft 243 kts 164°
2026-04-23 05:50 49.35124 -2.50137 3006 ft 247 kts 164°
2026-04-23 05:50 49.33436 -2.49585 3016 ft 249 kts 164°
2026-04-23 05:50 49.31744 -2.49034 3014 ft 249 kts 164°
2026-04-23 05:51 49.30052 -2.48483 3007 ft 248 kts 164°
2026-04-23 05:51 49.28408 -2.47947 3012 ft 247 kts 164°
2026-04-23 05:51 49.26726 -2.47402 3022 ft 248 kts 165°
2026-04-23 05:51 49.25050 -2.46991 2956 ft 239 kts 168°
2026-04-23 05:52 49.23391 -2.46664 2542 ft 242 kts 169°
2026-04-23 05:52 49.21723 -2.46314 2134 ft 241 kts 162°
2026-04-23 05:52 49.20296 -2.45237 1976 ft 225 kts 138°
2026-04-23 05:52 49.19372 -2.43450 1980 ft 207 kts 115°
2026-04-23 05:53 49.19027 -2.41406 1982 ft 193 kts 95°
2026-04-23 05:53 49.19136 -2.39438 1982 ft 179 kts 86°
2026-04-23 05:53 49.19291 -2.37653 2001 ft 160 kts 86°
2026-04-23 05:53 49.19427 -2.36063 1980 ft 140 kts 87°
2026-04-23 05:54 49.19542 -2.34706 1983 ft 123 kts 88°
2026-04-23 05:54 49.19647 -2.33448 1983 ft 117 kts 88°
2026-04-23 05:54 49.19746 -2.32240 1984 ft 115 kts 88°
2026-04-23 05:54 49.19846 -2.31025 1857 ft 114 kts 87°
2026-04-23 05:55 49.19945 -2.29820 1677 ft 114 kts 86°
2026-04-23 05:55 49.20041 -2.28625 1495 ft 113 kts 87°
2026-04-23 05:55 49.20139 -2.27437 1315 ft 112 kts 86°
2026-04-23 05:55 49.20234 -2.26253 1165 ft 112 kts 86°
2026-04-23 05:56 49.20325 -2.25064 962 ft 113 kts 84°
2026-04-23 05:56 49.20437 -2.23878 784 ft 112 kts 81°
2026-04-23 05:56 49.20519 -2.22702 631 ft 114 kts 83°
2026-04-23 05:56 49.20632 -2.21505 453 ft 114 kts 81°
2026-04-23 05:57 49.20731 -2.20321 337 ft 110 kts 80°
2026-04-23 05:57 49.20830 -2.19242 286 ft 68 kts 81°
2026-04-23 05:57 49.20863 -2.18835 283 ft 28 kts 82°
2026-04-23 05:57 49.20888 -2.18538 282 ft 30 kts 83°
2026-04-23 05:58 49.20829 -2.18377 284 ft 17 kts 169°
2026-04-23 05:58 49.20737 -2.18487 284 ft 19 kts 263°
2026-04-23 05:58 49.20715 -2.18711 284 ft 23 kts 264°
2026-04-23 05:58 49.20694 -2.18976 284 ft 28 kts 262°
2026-04-23 05:59 49.20687 -2.19247 284 ft 24 kts 281°
2026-04-23 05:59 49.20707 -2.19457 284 ft 21 kts 266°
2026-04-23 05:59 49.20674 -2.19634 289 ft 16 kts 231°
2026-04-23 05:59 49.20610 -2.19778 284 ft 18 kts 265°
2026-04-23 06:00 49.20595 -2.19861 284 ft 4 kts 207°
2026-04-23 06:00 49.20560 -2.19864 284 ft 4 kts 173°
2026-04-23 06:00 49.20546 -2.19861 284 ft 1 kts 173°
2026-04-23 06:00 49.20542 -2.19860 284 ft 0 kts 173°